createdAt,value
2022-12-18T00:00:49.121Z,43.35
2022-12-18T00:03:16.608Z,50.38
2022-12-18T00:05:50.837Z,43.58
2022-12-18T00:08:18.206Z,43.17
2022-12-18T00:10:45.916Z,52.45
2022-12-18T00:13:13.237Z,51.50
2022-12-18T00:15:40.306Z,53.10
2022-12-18T00:18:07.693Z,46.95
2022-12-18T00:20:39.094Z,43.53
2022-12-18T00:23:06.997Z,44.97
2022-12-18T00:25:35.798Z,43.50
2022-12-18T00:28:03.729Z,50.20
2022-12-18T00:30:30.856Z,50.08
2022-12-18T00:32:58.296Z,47.28
2022-12-18T00:35:26.056Z,46.28
2022-12-18T00:37:53.089Z,41.97
2022-12-18T00:40:20.179Z,43.65
2022-12-18T00:42:58.900Z,41.50
2022-12-18T00:45:31.062Z,46.53
2022-12-18T00:47:57.878Z,42.13
2022-12-18T00:50:25.650Z,44.55
2022-12-18T00:52:52.605Z,46.60
2022-12-18T00:55:19.412Z,49.20
2022-12-18T00:57:47.827Z,47.88
2022-12-18T01:00:16.372Z,46.70
2022-12-18T01:02:43.434Z,48.00
2022-12-18T01:05:11.695Z,56.38
2022-12-18T01:07:38.887Z,48.13
2022-12-18T01:10:06.804Z,58.25
2022-12-18T01:12:35.722Z,54.72
2022-12-18T01:15:03.392Z,55.90
2022-12-18T01:17:30.203Z,51.20
2022-12-18T01:19:57.171Z,62.17
2022-12-18T01:22:23.805Z,69.82
2022-12-18T01:24:50.605Z,54.55
2022-12-18T01:27:17.365Z,55.95
2022-12-18T01:29:44.376Z,55.65
2022-12-18T01:32:10.978Z,61.78
2022-12-18T01:34:38.275Z,62.30
2022-12-18T01:37:08.199Z,57.08
2022-12-18T01:39:35.519Z,52.30
2022-12-18T01:42:12.288Z,53.22
2022-12-18T01:44:59.799Z,55.72
2022-12-18T01:48:07.798Z,56.92
2022-12-18T01:50:37.483Z,56.92
2022-12-18T01:53:16.303Z,51.05
2022-12-18T01:55:54.084Z,49.03
2022-12-18T01:58:25.242Z,55.15
2022-12-18T02:00:52.401Z,55.97
2022-12-18T02:03:20.601Z,54.90
2022-12-18T02:05:53.245Z,60.67
2022-12-18T02:08:31.868Z,54.93
2022-12-18T02:11:19.989Z,54.67
2022-12-18T02:14:10.146Z,54.65
2022-12-18T02:16:59.220Z,55.63
2022-12-18T02:19:51.513Z,53.28
2022-12-18T02:22:31.200Z,55.53
2022-12-18T02:25:26.184Z,49.50
2022-12-18T02:27:53.569Z,56.78
2022-12-18T02:30:21.769Z,58.53
2022-12-18T02:32:53.549Z,54.08
2022-12-18T02:35:25.905Z,60.47
2022-12-18T02:37:55.119Z,53.72
2022-12-18T02:40:23.512Z,59.25
2022-12-18T02:42:50.729Z,60.17
2022-12-18T02:45:18.845Z,60.38
2022-12-18T02:47:49.234Z,58.42
2022-12-18T02:50:42.915Z,58.40
2022-12-18T02:53:15.386Z,57.45
2022-12-18T02:55:50.994Z,50.67
2022-12-18T02:58:39.414Z,59.65
2022-12-18T03:01:45.852Z,60.75
2022-12-18T03:04:20.330Z,55.63
2022-12-18T03:06:50.496Z,60.20
2022-12-18T03:09:22.967Z,56.00
2022-12-18T03:12:14.760Z,61.00
2022-12-18T03:14:42.793Z,57.50
2022-12-18T03:17:14.981Z,52.72
2022-12-18T03:19:42.427Z,58.88
2022-12-18T03:22:09.353Z,67.15
2022-12-18T03:24:45.594Z,64.72
2022-12-18T03:27:15.157Z,61.72
2022-12-18T03:29:46.929Z,64.68
2022-12-18T03:32:24.748Z,67.05
2022-12-18T03:34:52.004Z,58.95
2022-12-18T03:37:21.977Z,64.45
2022-12-18T03:39:48.676Z,62.13
2022-12-18T03:42:16.506Z,61.08
2022-12-18T03:45:10.957Z,66.63
2022-12-18T03:47:49.483Z,69.00
2022-12-18T03:50:43.087Z,59.25
2022-12-18T03:53:51.933Z,63.05
2022-12-18T03:56:22.669Z,64.78
2022-12-18T03:58:50.106Z,58.25
2022-12-18T04:01:24.808Z,65.20
2022-12-18T04:03:51.910Z,66.30
2022-12-18T04:06:20.366Z,64.50
2022-12-18T04:08:47.841Z,65.60
2022-12-18T04:11:17.866Z,62.40
2022-12-18T04:13:46.062Z,60.53
2022-12-18T04:16:21.074Z,61.42
2022-12-18T04:18:51.536Z,65.47
2022-12-18T04:21:20.760Z,70.30
2022-12-18T04:23:49.773Z,53.83
2022-12-18T04:26:18.144Z,64.85
2022-12-18T04:28:53.929Z,63.55
2022-12-18T04:31:21.477Z,63.88
2022-12-18T04:33:48.220Z,59.50
2022-12-18T04:36:15.502Z,55.13
2022-12-18T04:38:43.332Z,66.60
2022-12-18T04:41:13.717Z,67.68
2022-12-18T04:43:41.887Z,67.32
2022-12-18T04:46:09.246Z,61.20
2022-12-18T04:48:36.855Z,69.90
2022-12-18T04:51:04.110Z,63.58
2022-12-18T04:53:30.774Z,60.63
2022-12-18T04:56:11.928Z,61.08
2022-12-18T04:58:39.332Z,59.22
2022-12-18T05:01:06.436Z,62.83
2022-12-18T05:03:33.100Z,59.20
2022-12-18T05:05:59.703Z,66.47
2022-12-18T05:08:26.393Z,58.72
2022-12-18T05:11:15.012Z,61.25
2022-12-18T05:13:41.974Z,65.30
2022-12-18T05:16:09.431Z,57.13
2022-12-18T05:18:36.197Z,55.15
2022-12-18T05:21:02.962Z,67.28
2022-12-18T05:23:29.881Z,69.50
2022-12-18T05:26:01.532Z,60.83
2022-12-18T05:28:29.680Z,66.55
2022-12-18T05:30:58.445Z,62.92
2022-12-18T05:33:26.969Z,70.35
2022-12-18T05:35:54.806Z,55.88
2022-12-18T05:38:22.121Z,62.25
2022-12-18T05:40:49.582Z,61.33
2022-12-18T05:43:21.212Z,59.83
2022-12-18T05:45:48.757Z,57.40
2022-12-18T05:48:16.407Z,59.47
2022-12-18T05:50:46.304Z,59.70
2022-12-18T05:53:18.679Z,55.75
2022-12-18T05:55:45.413Z,63.53
2022-12-18T05:58:13.465Z,60.45
2022-12-18T06:00:44.694Z,60.70
2022-12-18T06:03:12.688Z,62.08
2022-12-18T06:05:41.439Z,55.67
2022-12-18T06:08:08.275Z,55.88
2022-12-18T06:10:34.996Z,60.33
2022-12-18T06:13:02.122Z,57.35
2022-12-18T06:15:28.783Z,57.95
2022-12-18T06:17:55.378Z,54.65
2022-12-18T06:20:22.414Z,62.08
2022-12-18T06:22:48.963Z,58.30
2022-12-18T06:25:16.717Z,67.82
2022-12-18T06:27:43.362Z,56.38
2022-12-18T06:30:11.345Z,58.67
2022-12-18T06:32:38.137Z,62.17
2022-12-18T06:35:05.150Z,62.03
2022-12-18T06:37:32.409Z,64.78
2022-12-18T06:39:58.973Z,63.15
2022-12-18T06:42:25.931Z,62.83
2022-12-18T06:44:52.736Z,62.15
2022-12-18T06:47:19.716Z,66.53
2022-12-18T06:49:46.439Z,61.22
2022-12-18T06:52:13.074Z,59.85
2022-12-18T06:54:42.370Z,53.83
2022-12-18T06:57:09.001Z,60.97
2022-12-18T06:59:35.608Z,64.05
2022-12-18T07:02:02.258Z,53.42
2022-12-18T07:04:31.288Z,58.40
2022-12-18T07:06:58.465Z,66.30
2022-12-18T07:09:25.424Z,67.97
2022-12-18T07:11:52.875Z,57.72
2022-12-18T07:14:19.457Z,66.35
2022-12-18T07:16:46.094Z,65.75
2022-12-18T07:19:12.777Z,54.40
2022-12-18T07:21:39.397Z,55.42
2022-12-18T07:24:06.657Z,54.85
2022-12-18T07:26:33.225Z,53.35
2022-12-18T07:28:59.865Z,59.63
2022-12-18T07:31:27.340Z,68.40
2022-12-18T07:33:54.553Z,57.72
2022-12-18T07:36:21.187Z,65.97
2022-12-18T07:38:51.203Z,59.83
2022-12-18T07:41:18.041Z,67.53
2022-12-18T07:43:44.958Z,61.55
2022-12-18T07:46:14.808Z,71.45
2022-12-18T07:48:42.587Z,52.40
2022-12-18T07:51:11.104Z,56.05
2022-12-18T07:53:38.071Z,57.92
2022-12-18T07:58:54.812Z,57.70
2022-12-18T08:01:21.769Z,65.28
2022-12-18T08:03:48.606Z,59.30
2022-12-18T08:06:16.695Z,56.65
2022-12-18T08:08:44.487Z,60.42
2022-12-18T08:11:38.703Z,55.63
2022-12-18T08:38:30.349Z,63.85
2022-12-18T08:41:04.618Z,60.88
2022-12-18T08:43:49.950Z,65.35
2022-12-18T08:46:16.840Z,55.45
2022-12-18T08:48:43.472Z,66.28
2022-12-18T08:51:12.862Z,61.25
2022-12-18T08:53:39.999Z,61.30
2022-12-18T08:56:08.334Z,61.38
2022-12-18T08:58:35.267Z,62.78
2022-12-18T09:01:04.147Z,59.22
2022-12-18T09:03:31.421Z,60.35
2022-12-18T09:05:58.341Z,63.80
2022-12-18T09:08:24.968Z,68.97
2022-12-18T09:10:52.026Z,66.57
2022-12-18T09:13:19.988Z,70.18
2022-12-18T09:15:49.061Z,62.38
2022-12-18T09:18:16.866Z,63.33
2022-12-18T09:20:43.573Z,67.03
2022-12-18T09:23:10.674Z,70.47
2022-12-18T09:25:37.960Z,63.97
2022-12-18T09:28:10.329Z,76.30
2022-12-18T09:30:41.693Z,57.40
2022-12-18T09:33:12.448Z,61.72
2022-12-18T09:35:43.861Z,58.42
2022-12-18T09:38:19.137Z,63.45
2022-12-18T09:40:51.229Z,68.88
2022-12-18T09:43:30.429Z,66.85
2022-12-18T09:46:02.941Z,65.78
2022-12-18T09:48:33.289Z,61.60
2022-12-18T09:51:04.710Z,64.80
2022-12-18T09:53:33.822Z,64.88
2022-12-18T09:56:01.525Z,69.80
2022-12-18T09:58:41.677Z,65.60
2022-12-18T10:01:22.040Z,73.35
2022-12-18T10:03:48.983Z,71.90
2022-12-18T10:06:24.215Z,66.30
2022-12-18T10:09:13.197Z,67.53
2022-12-18T10:12:00.830Z,64.45
2022-12-18T10:14:46.217Z,58.88
2022-12-18T10:17:48.554Z,71.65
2022-12-18T10:20:42.672Z,68.03
2022-12-18T10:23:35.656Z,66.70
2022-12-18T10:26:10.958Z,64.82
2022-12-18T10:28:40.170Z,61.47
2022-12-18T10:31:18.179Z,75.90
2022-12-18T10:33:44.986Z,64.57
2022-12-18T10:36:12.051Z,71.80
2022-12-18T10:38:39.191Z,62.70
2022-12-18T10:41:26.765Z,69.70
2022-12-18T10:44:15.602Z,65.43
2022-12-18T10:46:42.392Z,61.13
2022-12-18T10:49:20.640Z,63.83
2022-12-18T10:51:47.432Z,72.57
2022-12-18T10:54:17.865Z,61.10
2022-12-18T10:56:44.905Z,68.85
2022-12-18T10:59:15.413Z,68.07
2022-12-18T11:01:49.900Z,64.95
2022-12-18T11:04:25.880Z,71.65
2022-12-18T11:07:09.191Z,69.55
2022-12-18T11:09:38.107Z,60.72
2022-12-18T11:12:15.979Z,68.05
2022-12-18T11:14:46.781Z,63.60
2022-12-18T11:17:30.154Z,74.85
2022-12-18T11:20:01.914Z,68.68
2022-12-18T11:22:29.410Z,71.55
2022-12-18T11:25:30.910Z,64.95
2022-12-18T11:27:50.881Z,63.38
2022-12-18T11:30:20.460Z,69.72
2022-12-18T11:32:50.064Z,64.75
2022-12-18T11:35:25.066Z,69.38
2022-12-18T11:37:58.730Z,61.80
2022-12-18T11:40:37.846Z,65.05
2022-12-18T11:43:28.793Z,62.75
2022-12-18T11:46:16.221Z,62.13
2022-12-18T11:48:57.319Z,61.67
2022-12-18T11:51:35.511Z,66.97
2022-12-18T11:54:11.097Z,63.65
2022-12-18T11:56:42.454Z,68.82
2022-12-18T11:59:26.602Z,69.57
2022-12-18T12:02:11.105Z,65.82
2022-12-18T12:04:52.892Z,65.15
2022-12-18T12:07:28.578Z,63.38
2022-12-18T12:09:57.871Z,60.30
2022-12-18T12:12:54.801Z,49.67
2022-12-18T12:15:33.497Z,67.90
2022-12-18T12:18:29.356Z,65.10
2022-12-18T12:21:33.738Z,63.50
2022-12-18T12:24:07.515Z,68.30
2022-12-18T12:26:53.892Z,58.15
2022-12-18T12:30:06.901Z,64.63
2022-12-18T12:32:54.730Z,69.78
2022-12-18T12:35:44.103Z,61.50
2022-12-18T12:38:29.830Z,60.17
2022-12-18T12:41:29.441Z,69.20
2022-12-18T12:43:58.769Z,61.35
2022-12-18T12:46:26.104Z,59.63
2022-12-18T12:49:05.807Z,58.55
2022-12-18T12:51:36.696Z,63.70
2022-12-18T12:54:06.816Z,60.75
2022-12-18T12:56:41.366Z,62.05
2022-12-18T12:59:19.771Z,59.63
2022-12-18T13:02:00.276Z,64.00
2022-12-18T13:04:41.091Z,64.47
2022-12-18T13:07:16.865Z,68.28
2022-12-18T13:10:22.003Z,64.38
2022-12-18T13:13:01.885Z,68.28
2022-12-18T13:15:50.008Z,60.72
2022-12-18T13:18:19.789Z,54.05
2022-12-18T13:20:55.402Z,68.57
2022-12-18T13:23:26.904Z,56.45
2022-12-18T13:25:57.303Z,63.40
2022-12-18T13:28:48.447Z,59.40
2022-12-18T13:31:16.344Z,63.80
2022-12-18T13:34:09.464Z,58.10
2022-12-18T13:36:32.991Z,58.47
2022-12-18T13:39:17.314Z,62.35
2022-12-18T13:41:50.258Z,60.97
2022-12-18T13:44:40.654Z,62.28
2022-12-18T13:47:32.647Z,68.55
2022-12-18T13:49:59.426Z,61.35
2022-12-18T13:52:27.874Z,72.50
2022-12-18T13:54:56.672Z,60.33
2022-12-18T13:57:35.395Z,61.63
2022-12-18T14:00:29.507Z,58.90
2022-12-18T14:03:00.030Z,57.53
2022-12-18T14:05:37.738Z,58.13
2022-12-18T14:08:15.075Z,64.25
2022-12-18T14:10:50.219Z,58.28
2022-12-18T14:13:25.502Z,60.63
2022-12-18T14:15:52.813Z,65.22
2022-12-18T14:18:25.887Z,56.58
2022-12-18T14:20:54.384Z,58.25
2022-12-18T14:23:37.855Z,58.80
2022-12-18T14:28:46.430Z,63.45
2022-12-18T14:31:25.218Z,59.33
2022-12-18T14:33:52.294Z,57.67
2022-12-18T14:36:27.516Z,60.83
2022-12-18T14:38:55.951Z,63.97
2022-12-18T14:41:23.691Z,64.85
2022-12-18T14:43:53.120Z,61.78
2022-12-18T14:46:40.495Z,72.60
2022-12-18T14:49:32.580Z,61.38
2022-12-18T14:52:02.993Z,55.28
2022-12-18T14:54:31.136Z,55.88
2022-12-18T14:57:06.892Z,68.32
2022-12-18T14:59:33.930Z,58.28
2022-12-18T15:02:23.308Z,63.28
2022-12-18T15:05:12.747Z,64.90
2022-12-18T15:07:44.117Z,65.93
2022-12-18T15:10:15.549Z,63.65
2022-12-18T15:12:47.707Z,60.92
2022-12-18T15:15:40.393Z,67.65
2022-12-18T15:18:12.991Z,58.05
2022-12-18T15:20:52.407Z,66.23
2022-12-18T15:23:20.927Z,79.15
2022-12-18T15:25:49.537Z,63.72
2022-12-18T15:28:40.527Z,60.40
2022-12-18T15:31:11.003Z,65.97
2022-12-18T15:33:40.802Z,59.53
2022-12-18T15:36:13.185Z,62.92
2022-12-18T15:38:40.343Z,65.75
2022-12-18T15:41:28.491Z,65.53
2022-12-18T15:43:55.195Z,66.68
2022-12-18T15:46:26.165Z,65.55
2022-12-18T15:49:01.869Z,62.95
2022-12-18T15:51:34.517Z,65.20
2022-12-18T15:54:09.249Z,70.90
2022-12-18T15:56:54.966Z,65.25
2022-12-18T15:59:22.314Z,61.40
2022-12-18T16:01:51.151Z,62.13
2022-12-18T16:04:21.576Z,67.40
2022-12-18T16:07:14.008Z,64.35
2022-12-18T16:09:36.877Z,63.05
2022-12-18T16:12:03.600Z,69.40
2022-12-18T16:14:30.946Z,59.40
2022-12-18T16:17:06.789Z,66.53
2022-12-18T16:19:33.377Z,63.42
2022-12-18T16:22:00.165Z,75.95
2022-12-18T16:24:32.068Z,63.85
2022-12-18T16:27:00.635Z,60.80
2022-12-18T16:29:29.418Z,69.50
2022-12-18T16:31:58.016Z,71.93
2022-12-18T16:34:31.400Z,68.72
2022-12-18T16:37:06.028Z,74.35
2022-12-18T16:39:36.775Z,61.40
2022-12-18T16:42:05.952Z,62.25
2022-12-18T16:44:34.497Z,59.92
2022-12-18T16:47:03.359Z,67.47
2022-12-18T16:49:30.272Z,62.95
2022-12-18T16:51:57.466Z,69.60
2022-12-18T16:54:24.671Z,66.43
2022-12-18T16:56:52.173Z,60.42
2022-12-18T16:59:19.064Z,72.82
2022-12-18T17:01:47.496Z,64.78
2022-12-18T17:04:15.217Z,63.15
2022-12-18T17:06:43.936Z,71.22
2022-12-18T17:09:15.915Z,64.30
2022-12-18T17:11:43.302Z,62.15
2022-12-18T17:14:20.929Z,69.47
2022-12-18T17:16:57.764Z,64.25
2022-12-18T17:19:35.088Z,65.28
2022-12-18T17:22:02.397Z,66.75
2022-12-18T17:24:34.556Z,67.85
2022-12-18T17:27:04.112Z,65.15
2022-12-18T17:29:31.857Z,66.65
2022-12-18T17:31:59.709Z,64.13
2022-12-18T17:34:27.988Z,66.55
2022-12-18T17:36:55.100Z,66.22
2022-12-18T17:39:21.899Z,74.40
2022-12-18T17:41:49.391Z,73.32
2022-12-18T17:44:16.776Z,63.63
2022-12-18T17:46:43.654Z,65.63
2022-12-18T17:49:10.695Z,75.70
2022-12-18T17:51:37.831Z,60.92
2022-12-18T17:54:05.338Z,63.13
2022-12-18T17:56:32.780Z,69.45
2022-12-18T17:58:59.801Z,69.95
2022-12-18T18:01:27.221Z,65.95
2022-12-18T18:03:56.140Z,68.53
2022-12-18T18:06:23.719Z,67.20
2022-12-18T18:08:51.416Z,65.90
2022-12-18T18:11:38.305Z,72.20
2022-12-18T18:14:17.812Z,65.55
2022-12-18T18:16:46.786Z,69.70
2022-12-18T18:19:19.089Z,77.18
2022-12-18T18:21:47.402Z,67.68
2022-12-18T18:24:17.136Z,71.70
2022-12-18T18:26:44.481Z,74.10
2022-12-18T18:29:22.606Z,64.78
2022-12-18T18:31:49.833Z,74.45
2022-12-18T18:34:22.616Z,67.38
2022-12-18T18:36:49.496Z,69.28
2022-12-18T18:39:16.294Z,68.80
2022-12-18T18:41:47.821Z,76.50
2022-12-18T18:44:16.744Z,65.68
2022-12-18T18:46:44.026Z,69.45
2022-12-18T18:49:11.487Z,76.50
2022-12-18T18:51:40.041Z,80.05
2022-12-18T18:54:06.869Z,69.57
2022-12-18T18:57:11.676Z,68.38
2022-12-18T18:59:30.402Z,77.95
2022-12-18T19:02:00.705Z,68.72
2022-12-18T19:04:31.971Z,79.60
2022-12-18T19:06:58.689Z,76.20
2022-12-18T19:09:26.239Z,77.63
2022-12-18T19:12:12.287Z,70.40
2022-12-18T19:14:38.997Z,68.50
2022-12-18T19:17:06.907Z,76.45
2022-12-18T19:19:33.837Z,76.13
2022-12-18T19:22:00.969Z,71.60
2022-12-18T19:24:27.841Z,64.90
2022-12-18T19:26:56.864Z,68.50
2022-12-18T19:29:25.083Z,66.40
2022-12-18T19:31:51.846Z,80.60
2022-12-18T19:34:18.729Z,74.38
2022-12-18T19:36:45.590Z,73.85
2022-12-18T19:39:17.012Z,79.00
2022-12-18T19:41:44.688Z,79.80
2022-12-18T19:44:13.366Z,75.63
2022-12-18T19:46:41.937Z,76.03
2022-12-18T19:49:16.757Z,79.10
2022-12-18T19:51:47.754Z,71.18
2022-12-18T19:54:17.757Z,73.15
2022-12-18T19:56:45.332Z,78.80
2022-12-18T19:59:12.523Z,69.68
2022-12-18T20:01:39.321Z,68.10
2022-12-18T20:04:06.403Z,69.97
2022-12-18T20:06:35.940Z,76.15
2022-12-18T20:09:05.397Z,78.88
2022-12-18T20:11:34.857Z,65.13
2022-12-18T20:14:09.551Z,76.70
2022-12-18T20:16:36.272Z,73.10
2022-12-18T20:19:03.921Z,75.13
2022-12-18T20:21:30.537Z,74.15
2022-12-18T20:23:57.176Z,73.30
2022-12-18T20:26:24.697Z,73.95
2022-12-18T20:28:51.984Z,80.95
2022-12-18T20:31:18.663Z,84.60
2022-12-18T20:33:48.582Z,75.32
2022-12-18T20:36:22.410Z,77.95
2022-12-18T20:41:20.142Z,81.93
2022-12-18T20:43:47.495Z,72.35
2022-12-18T20:46:15.748Z,81.75
2022-12-18T20:48:43.225Z,84.78
2022-12-18T20:51:12.389Z,74.75
2022-12-18T20:53:40.818Z,80.18
2022-12-18T20:56:18.363Z,87.85
2022-12-18T20:58:49.236Z,66.63
2022-12-18T21:01:18.779Z,73.53
2022-12-18T21:03:46.714Z,83.53
2022-12-18T21:06:14.170Z,89.30
2022-12-18T21:08:41.177Z,82.65
2022-12-18T21:11:38.484Z,78.78
2022-12-18T21:14:13.535Z,69.40
2022-12-18T21:16:40.521Z,82.60
2022-12-18T21:19:07.360Z,72.28
2022-12-18T21:21:38.407Z,72.90
2022-12-18T21:24:06.236Z,78.38
2022-12-18T21:26:33.325Z,83.43
2022-12-18T21:29:02.577Z,74.25
2022-12-18T21:31:31.681Z,88.72
2022-12-18T21:34:01.992Z,85.80
2022-12-18T21:36:30.365Z,72.90
2022-12-18T21:38:57.991Z,84.20
2022-12-18T21:41:44.133Z,77.78
2022-12-18T21:44:13.758Z,82.45
2022-12-18T21:46:43.133Z,80.07
2022-12-18T21:49:10.578Z,87.57
2022-12-18T21:51:37.601Z,90.88
2022-12-18T21:54:04.524Z,83.20
2022-12-18T21:56:57.114Z,81.07
2022-12-18T21:59:31.670Z,81.70
2022-12-18T22:02:00.908Z,88.75
2022-12-18T22:04:28.030Z,78.00
2022-12-18T22:06:55.826Z,79.80
2022-12-18T22:09:24.151Z,84.50
2022-12-18T22:11:51.742Z,80.85
2022-12-18T22:14:18.411Z,69.75
2022-12-18T22:16:45.197Z,89.13
2022-12-18T22:19:12.313Z,89.38
2022-12-18T22:21:42.790Z,79.10
2022-12-18T22:24:17.825Z,83.30
2022-12-18T22:26:46.759Z,77.72
2022-12-18T22:29:34.633Z,90.82
2022-12-18T22:32:02.423Z,89.15
2022-12-18T22:34:29.252Z,80.22
2022-12-18T22:36:56.851Z,74.57
2022-12-18T22:39:26.561Z,77.47
2022-12-18T22:41:55.713Z,86.20
2022-12-18T22:44:22.454Z,94.97
2022-12-18T22:47:05.410Z,85.55
2022-12-18T22:49:33.933Z,83.65
2022-12-18T22:52:03.124Z,78.00
2022-12-18T22:54:29.842Z,86.43
2022-12-18T22:56:56.858Z,83.05
2022-12-18T22:59:23.692Z,80.22
2022-12-18T23:01:51.660Z,76.38
2022-12-18T23:04:28.414Z,83.28
2022-12-18T23:07:05.786Z,80.38
2022-12-18T23:09:32.875Z,86.75
2022-12-18T23:11:59.625Z,77.82
2022-12-18T23:14:26.645Z,86.10
2022-12-18T23:16:53.490Z,75.18
2022-12-18T23:19:20.909Z,85.80
2022-12-18T23:21:50.254Z,78.07
2022-12-18T23:24:16.865Z,70.68
2022-12-18T23:26:43.481Z,78.72
2022-12-18T23:29:10.105Z,71.65
2022-12-18T23:31:38.524Z,74.85
2022-12-18T23:34:06.017Z,79.10
2022-12-18T23:36:35.890Z,75.63
2022-12-18T23:39:21.602Z,86.47
2022-12-18T23:41:58.514Z,83.47
2022-12-18T23:44:25.472Z,79.25
2022-12-18T23:46:52.731Z,82.53
2022-12-18T23:49:19.654Z,77.72
2022-12-18T23:51:46.264Z,83.82
2022-12-18T23:54:12.807Z,89.57
2022-12-18T23:56:39.568Z,80.90
2022-12-18T23:59:06.209Z,75.25
